Terminal Aerodrome Forecast
Issued by NWS

Home | Current Version | Previous Version | Text Only | Print | Product List | Glossary On
Versions: 1 2 3 4 5 6 7 8 9 10 11 12 13 14 15 16 17 18 19
492
FTUS41 KPBZ 110832 AAA
TAFAGC
TAF AMD
KAGC 110832Z 1109/1206 17003KT 2SM -SN OVC025
      TEMPO 1109/1113 1SM -SN OVC015
     FM111300 13006KT 5SM -SN OVC025
     FM111800 15006KT P6SM OVC035
     FM120100 14007KT P6SM -RASN OVC035=

USA.gov is the U.S. government's official web portal to all federal, state and local government web resources and services.